sensor_id;sensor_type;location;lat;lon;timestamp;temperature;humidity
32536;DHT22;18974;50.838;4.636;2022-10-16T00:01:08;14.30;99.90
32536;DHT22;18974;50.838;4.636;2022-10-16T00:03:34;14.30;99.90
32536;DHT22;18974;50.838;4.636;2022-10-16T00:06:00;14.20;99.90
32536;DHT22;18974;50.838;4.636;2022-10-16T00:08:27;14.20;99.90
32536;DHT22;18974;50.838;4.636;2022-10-16T00:10:57;14.20;99.90
32536;DHT22;18974;50.838;4.636;2022-10-16T00:13:24;14.20;99.90
32536;DHT22;18974;50.838;4.636;2022-10-16T00:15:49;14.20;99.90
32536;DHT22;18974;50.838;4.636;2022-10-16T00:18:15;14.20;99.90
32536;DHT22;18974;50.838;4.636;2022-10-16T00:20:41;14.20;99.90
32536;DHT22;18974;50.838;4.636;2022-10-16T00:23:07;14.20;99.90
32536;DHT22;18974;50.838;4.636;2022-10-16T00:25:33;14.10;99.90
32536;DHT22;18974;50.838;4.636;2022-10-16T00:28:00;14.30;99.90
32536;DHT22;18974;50.838;4.636;2022-10-16T00:30:26;14.30;99.90
32536;DHT22;18974;50.838;4.636;2022-10-16T00:32:53;14.30;99.90
32536;DHT22;18974;50.838;4.636;2022-10-16T00:35:19;14.30;99.90
32536;DHT22;18974;50.838;4.636;2022-10-16T00:37:44;14.30;99.90
32536;DHT22;18974;50.838;4.636;2022-10-16T00:40:10;14.20;99.90
32536;DHT22;18974;50.838;4.636;2022-10-16T00:42:36;14.20;99.90
32536;DHT22;18974;50.838;4.636;2022-10-16T00:45:03;14.30;99.90
32536;DHT22;18974;50.838;4.636;2022-10-16T00:47:32;14.20;99.90
32536;DHT22;18974;50.838;4.636;2022-10-16T00:50:07;14.20;99.90
32536;DHT22;18974;50.838;4.636;2022-10-16T00:52:33;14.20;99.90
32536;DHT22;18974;50.838;4.636;2022-10-16T00:55:01;14.20;99.90
32536;DHT22;18974;50.838;4.636;2022-10-16T00:57:28;14.20;99.90
32536;DHT22;18974;50.838;4.636;2022-10-16T00:59:54;14.10;99.90
32536;DHT22;18974;50.838;4.636;2022-10-16T01:02:20;14.10;99.90
32536;DHT22;18974;50.838;4.636;2022-10-16T01:04:49;14.10;99.90
32536;DHT22;18974;50.838;4.636;2022-10-16T01:07:50;14.10;99.90
32536;DHT22;18974;50.838;4.636;2022-10-16T01:13:10;14.00;99.90
32536;DHT22;18974;50.838;4.636;2022-10-16T01:16:07;14.00;99.90
32536;DHT22;18974;50.838;4.636;2022-10-16T01:18:54;14.00;99.90
32536;DHT22;18974;50.838;4.636;2022-10-16T01:21:26;14.00;99.90
32536;DHT22;18974;50.838;4.636;2022-10-16T01:32:30;13.90;99.90
32536;DHT22;18974;50.838;4.636;2022-10-16T01:35:32;14.00;99.90
32536;DHT22;18974;50.838;4.636;2022-10-16T01:38:22;14.00;99.90
32536;DHT22;18974;50.838;4.636;2022-10-16T01:40:54;14.10;99.90
32536;DHT22;18974;50.838;4.636;2022-10-16T01:43:27;14.00;99.90
32536;DHT22;18974;50.838;4.636;2022-10-16T01:45:54;14.00;99.90
32536;DHT22;18974;50.838;4.636;2022-10-16T01:48:21;14.10;99.90
32536;DHT22;18974;50.838;4.636;2022-10-16T01:51:08;14.10;99.90
32536;DHT22;18974;50.838;4.636;2022-10-16T01:53:36;14.10;99.90
32536;DHT22;18974;50.838;4.636;2022-10-16T01:56:04;14.00;99.90
32536;DHT22;18974;50.838;4.636;2022-10-16T01:58:35;13.90;99.90
32536;DHT22;18974;50.838;4.636;2022-10-16T02:01:04;14.00;99.90
32536;DHT22;18974;50.838;4.636;2022-10-16T02:03:33;14.00;99.90
32536;DHT22;18974;50.838;4.636;2022-10-16T02:06:00;14.00;99.90
32536;DHT22;18974;50.838;4.636;2022-10-16T02:08:28;14.00;99.90
32536;DHT22;18974;50.838;4.636;2022-10-16T02:10:58;14.00;99.90
32536;DHT22;18974;50.838;4.636;2022-10-16T02:13:38;14.00;99.90
32536;DHT22;18974;50.838;4.636;2022-10-16T02:16:07;14.10;99.90
32536;DHT22;18974;50.838;4.636;2022-10-16T02:18:32;14.00;99.90
32536;DHT22;18974;50.838;4.636;2022-10-16T02:21:28;14.00;99.90
32536;DHT22;18974;50.838;4.636;2022-10-16T02:26:46;14.10;99.90
32536;DHT22;18974;50.838;4.636;2022-10-16T02:29:17;14.10;99.90
32536;DHT22;18974;50.838;4.636;2022-10-16T02:31:48;14.00;99.90
32536;DHT22;18974;50.838;4.636;2022-10-16T02:34:18;14.00;99.90
32536;DHT22;18974;50.838;4.636;2022-10-16T02:36:44;14.10;99.90
32536;DHT22;18974;50.838;4.636;2022-10-16T02:39:11;13.90;99.90
32536;DHT22;18974;50.838;4.636;2022-10-16T02:41:37;14.00;99.90
32536;DHT22;18974;50.838;4.636;2022-10-16T02:44:04;14.00;99.90
32536;DHT22;18974;50.838;4.636;2022-10-16T02:46:29;13.90;99.90
32536;DHT22;18974;50.838;4.636;2022-10-16T02:48:55;13.70;99.90
32536;DHT22;18974;50.838;4.636;2022-10-16T02:51:20;13.70;99.90
32536;DHT22;18974;50.838;4.636;2022-10-16T02:53:46;13.70;99.90
32536;DHT22;18974;50.838;4.636;2022-10-16T02:56:12;13.80;99.90
32536;DHT22;18974;50.838;4.636;2022-10-16T02:58:37;13.70;99.90
32536;DHT22;18974;50.838;4.636;2022-10-16T03:01:03;13.70;99.90
32536;DHT22;18974;50.838;4.636;2022-10-16T03:03:29;13.70;99.90
32536;DHT22;18974;50.838;4.636;2022-10-16T03:05:55;13.70;99.90
32536;DHT22;18974;50.838;4.636;2022-10-16T03:08:20;13.70;99.90
32536;DHT22;18974;50.838;4.636;2022-10-16T03:10:49;13.80;99.90
32536;DHT22;18974;50.838;4.636;2022-10-16T03:13:15;13.80;99.90
32536;DHT22;18974;50.838;4.636;2022-10-16T03:15:41;13.80;99.90
32536;DHT22;18974;50.838;4.636;2022-10-16T03:18:07;13.70;99.90
32536;DHT22;18974;50.838;4.636;2022-10-16T03:20:32;13.80;99.90
32536;DHT22;18974;50.838;4.636;2022-10-16T03:22:58;13.90;99.90
32536;DHT22;18974;50.838;4.636;2022-10-16T03:25:24;13.90;99.90
32536;DHT22;18974;50.838;4.636;2022-10-16T03:27:49;13.80;99.90
32536;DHT22;18974;50.838;4.636;2022-10-16T03:30:15;13.90;99.90
32536;DHT22;18974;50.838;4.636;2022-10-16T03:32:42;13.90;99.90
32536;DHT22;18974;50.838;4.636;2022-10-16T03:35:09;13.90;99.90
32536;DHT22;18974;50.838;4.636;2022-10-16T03:37:34;13.90;99.90
32536;DHT22;18974;50.838;4.636;2022-10-16T03:40:00;14.00;99.90
32536;DHT22;18974;50.838;4.636;2022-10-16T03:42:26;14.00;99.90
32536;DHT22;18974;50.838;4.636;2022-10-16T03:44:51;14.00;99.90
32536;DHT22;18974;50.838;4.636;2022-10-16T03:47:17;14.00;99.90
32536;DHT22;18974;50.838;4.636;2022-10-16T03:49:47;14.00;99.90
32536;DHT22;18974;50.838;4.636;2022-10-16T03:52:13;14.00;99.90
32536;DHT22;18974;50.838;4.636;2022-10-16T03:54:38;14.00;99.90
32536;DHT22;18974;50.838;4.636;2022-10-16T03:57:04;14.00;99.90
32536;DHT22;18974;50.838;4.636;2022-10-16T03:59:30;14.00;99.90
32536;DHT22;18974;50.838;4.636;2022-10-16T04:01:56;14.00;99.90
32536;DHT22;18974;50.838;4.636;2022-10-16T04:04:21;13.90;99.90
32536;DHT22;18974;50.838;4.636;2022-10-16T04:06:47;13.90;99.90
32536;DHT22;18974;50.838;4.636;2022-10-16T04:09:13;13.80;99.90
32536;DHT22;18974;50.838;4.636;2022-10-16T04:11:39;13.80;99.90
32536;DHT22;18974;50.838;4.636;2022-10-16T04:14:04;13.80;99.90
32536;DHT22;18974;50.838;4.636;2022-10-16T04:16:30;13.80;99.90
32536;DHT22;18974;50.838;4.636;2022-10-16T04:18:55;13.80;99.90
32536;DHT22;18974;50.838;4.636;2022-10-16T04:21:21;13.80;99.90
32536;DHT22;18974;50.838;4.636;2022-10-16T04:23:48;13.90;99.90
32536;DHT22;18974;50.838;4.636;2022-10-16T04:26:14;13.90;99.90
32536;DHT22;18974;50.838;4.636;2022-10-16T04:28:40;13.90;99.90
32536;DHT22;18974;50.838;4.636;2022-10-16T04:31:06;14.00;99.90
32536;DHT22;18974;50.838;4.636;2022-10-16T04:33:32;13.90;99.90
32536;DHT22;18974;50.838;4.636;2022-10-16T04:35:59;13.90;99.90
32536;DHT22;18974;50.838;4.636;2022-10-16T04:38:25;13.90;99.90
32536;DHT22;18974;50.838;4.636;2022-10-16T04:40:51;14.00;99.90
32536;DHT22;18974;50.838;4.636;2022-10-16T04:43:16;13.90;99.90
32536;DHT22;18974;50.838;4.636;2022-10-16T04:45:42;14.00;99.90
32536;DHT22;18974;50.838;4.636;2022-10-16T04:48:08;13.90;99.90
32536;DHT22;18974;50.838;4.636;2022-10-16T04:50:33;14.00;99.90
32536;DHT22;18974;50.838;4.636;2022-10-16T04:52:59;14.00;99.90
32536;DHT22;18974;50.838;4.636;2022-10-16T04:55:25;13.90;99.90
32536;DHT22;18974;50.838;4.636;2022-10-16T04:57:51;14.00;99.90
32536;DHT22;18974;50.838;4.636;2022-10-16T05:00:16;13.90;99.90
32536;DHT22;18974;50.838;4.636;2022-10-16T05:02:42;14.00;99.90
32536;DHT22;18974;50.838;4.636;2022-10-16T05:05:08;14.00;99.90
32536;DHT22;18974;50.838;4.636;2022-10-16T05:07:33;14.00;99.90
32536;DHT22;18974;50.838;4.636;2022-10-16T05:09:59;14.00;99.90
32536;DHT22;18974;50.838;4.636;2022-10-16T05:12:25;13.90;99.90
32536;DHT22;18974;50.838;4.636;2022-10-16T05:14:50;13.90;99.90
32536;DHT22;18974;50.838;4.636;2022-10-16T05:17:16;14.00;99.90
32536;DHT22;18974;50.838;4.636;2022-10-16T05:19:41;14.00;99.90
32536;DHT22;18974;50.838;4.636;2022-10-16T05:22:07;13.80;99.90
32536;DHT22;18974;50.838;4.636;2022-10-16T05:24:33;13.80;99.90
32536;DHT22;18974;50.838;4.636;2022-10-16T05:26:58;13.80;99.90
32536;DHT22;18974;50.838;4.636;2022-10-16T05:29:24;13.80;99.90
32536;DHT22;18974;50.838;4.636;2022-10-16T05:31:51;13.80;99.90
32536;DHT22;18974;50.838;4.636;2022-10-16T05:34:17;13.90;99.90
32536;DHT22;18974;50.838;4.636;2022-10-16T05:36:42;13.80;99.90
32536;DHT22;18974;50.838;4.636;2022-10-16T05:39:10;13.80;99.90
32536;DHT22;18974;50.838;4.636;2022-10-16T05:41:36;13.80;99.90
32536;DHT22;18974;50.838;4.636;2022-10-16T05:44:04;13.70;99.90
32536;DHT22;18974;50.838;4.636;2022-10-16T05:46:31;13.80;99.90
32536;DHT22;18974;50.838;4.636;2022-10-16T05:48:56;13.70;99.90
32536;DHT22;18974;50.838;4.636;2022-10-16T05:51:22;13.60;99.90
32536;DHT22;18974;50.838;4.636;2022-10-16T05:53:48;13.60;99.90
32536;DHT22;18974;50.838;4.636;2022-10-16T05:56:14;13.60;99.90
32536;DHT22;18974;50.838;4.636;2022-10-16T05:58:41;13.70;99.90
32536;DHT22;18974;50.838;4.636;2022-10-16T06:01:17;13.70;99.90
32536;DHT22;18974;50.838;4.636;2022-10-16T06:03:44;13.70;99.90
32536;DHT22;18974;50.838;4.636;2022-10-16T06:06:12;13.60;99.90
32536;DHT22;18974;50.838;4.636;2022-10-16T06:08:39;13.60;99.90
32536;DHT22;18974;50.838;4.636;2022-10-16T06:11:07;13.60;99.90
32536;DHT22;18974;50.838;4.636;2022-10-16T06:13:33;13.60;99.90
32536;DHT22;18974;50.838;4.636;2022-10-16T06:16:00;13.60;99.90
32536;DHT22;18974;50.838;4.636;2022-10-16T06:18:26;13.60;99.90
32536;DHT22;18974;50.838;4.636;2022-10-16T06:20:53;13.60;99.90
32536;DHT22;18974;50.838;4.636;2022-10-16T06:23:18;13.60;99.90
32536;DHT22;18974;50.838;4.636;2022-10-16T06:25:44;13.60;99.90
32536;DHT22;18974;50.838;4.636;2022-10-16T06:28:09;13.60;99.90
32536;DHT22;18974;50.838;4.636;2022-10-16T06:30:35;13.60;99.90
32536;DHT22;18974;50.838;4.636;2022-10-16T06:33:01;13.40;99.90
32536;DHT22;18974;50.838;4.636;2022-10-16T06:35:26;13.50;99.90
32536;DHT22;18974;50.838;4.636;2022-10-16T06:37:53;13.50;99.90
32536;DHT22;18974;50.838;4.636;2022-10-16T06:40:18;13.60;99.90
32536;DHT22;18974;50.838;4.636;2022-10-16T06:42:44;13.60;99.90
32536;DHT22;18974;50.838;4.636;2022-10-16T06:45:10;13.60;99.90
32536;DHT22;18974;50.838;4.636;2022-10-16T06:47:36;13.60;99.90
32536;DHT22;18974;50.838;4.636;2022-10-16T06:50:02;13.70;99.90
32536;DHT22;18974;50.838;4.636;2022-10-16T06:52:28;13.70;99.90
32536;DHT22;18974;50.838;4.636;2022-10-16T06:54:54;13.70;99.90
32536;DHT22;18974;50.838;4.636;2022-10-16T06:57:20;13.80;99.90
32536;DHT22;18974;50.838;4.636;2022-10-16T06:59:45;13.70;99.90
32536;DHT22;18974;50.838;4.636;2022-10-16T07:02:11;13.90;99.90
32536;DHT22;18974;50.838;4.636;2022-10-16T07:04:37;13.90;99.90
32536;DHT22;18974;50.838;4.636;2022-10-16T07:07:02;14.00;99.90
32536;DHT22;18974;50.838;4.636;2022-10-16T07:09:28;14.20;99.90
32536;DHT22;18974;50.838;4.636;2022-10-16T07:11:54;14.40;99.90
32536;DHT22;18974;50.838;4.636;2022-10-16T07:14:20;14.50;99.90
32536;DHT22;18974;50.838;4.636;2022-10-16T07:16:47;14.60;99.90
32536;DHT22;18974;50.838;4.636;2022-10-16T07:19:13;14.70;99.90
32536;DHT22;18974;50.838;4.636;2022-10-16T07:21:41;14.80;99.90
32536;DHT22;18974;50.838;4.636;2022-10-16T07:24:11;14.80;99.90
32536;DHT22;18974;50.838;4.636;2022-10-16T07:26:38;14.80;99.90
32536;DHT22;18974;50.838;4.636;2022-10-16T07:29:06;14.90;99.90
32536;DHT22;18974;50.838;4.636;2022-10-16T07:31:32;14.90;99.90
32536;DHT22;18974;50.838;4.636;2022-10-16T07:33:59;15.00;99.90
32536;DHT22;18974;50.838;4.636;2022-10-16T07:36:25;15.10;99.90
32536;DHT22;18974;50.838;4.636;2022-10-16T07:38:50;15.10;99.90
32536;DHT22;18974;50.838;4.636;2022-10-16T07:41:18;15.20;99.90
32536;DHT22;18974;50.838;4.636;2022-10-16T07:43:52;15.20;99.90
32536;DHT22;18974;50.838;4.636;2022-10-16T07:46:19;15.30;99.90
32536;DHT22;18974;50.838;4.636;2022-10-16T07:48:45;15.30;99.90
32536;DHT22;18974;50.838;4.636;2022-10-16T07:51:17;15.40;99.90
32536;DHT22;18974;50.838;4.636;2022-10-16T07:53:43;15.40;99.90
32536;DHT22;18974;50.838;4.636;2022-10-16T07:56:09;15.40;99.90
32536;DHT22;18974;50.838;4.636;2022-10-16T07:58:35;15.50;99.90
32536;DHT22;18974;50.838;4.636;2022-10-16T08:01:08;15.50;99.90
32536;DHT22;18974;50.838;4.636;2022-10-16T08:03:34;15.60;99.90
32536;DHT22;18974;50.838;4.636;2022-10-16T08:06:01;15.70;99.90
32536;DHT22;18974;50.838;4.636;2022-10-16T08:08:28;15.60;99.90
32536;DHT22;18974;50.838;4.636;2022-10-16T08:10:53;15.70;99.90
32536;DHT22;18974;50.838;4.636;2022-10-16T08:13:19;15.70;99.90
32536;DHT22;18974;50.838;4.636;2022-10-16T08:15:46;15.80;99.90
32536;DHT22;18974;50.838;4.636;2022-10-16T08:18:14;15.90;99.90
32536;DHT22;18974;50.838;4.636;2022-10-16T08:20:40;16.00;99.90
32536;DHT22;18974;50.838;4.636;2022-10-16T08:23:06;16.10;99.90
32536;DHT22;18974;50.838;4.636;2022-10-16T08:25:34;16.20;99.90
32536;DHT22;18974;50.838;4.636;2022-10-16T08:28:00;16.30;99.90
32536;DHT22;18974;50.838;4.636;2022-10-16T08:30:25;16.30;99.90
32536;DHT22;18974;50.838;4.636;2022-10-16T08:32:51;16.40;99.90
32536;DHT22;18974;50.838;4.636;2022-10-16T08:35:17;16.40;99.90
32536;DHT22;18974;50.838;4.636;2022-10-16T08:37:43;16.50;99.90
32536;DHT22;18974;50.838;4.636;2022-10-16T08:40:27;16.60;99.90
32536;DHT22;18974;50.838;4.636;2022-10-16T08:48:46;16.70;99.90
32536;DHT22;18974;50.838;4.636;2022-10-16T08:51:25;16.80;99.90
32536;DHT22;18974;50.838;4.636;2022-10-16T08:54:55;17.00;99.90
32536;DHT22;18974;50.838;4.636;2022-10-16T08:56:49;17.10;99.90
32536;DHT22;18974;50.838;4.636;2022-10-16T08:59:16;17.10;99.90
32536;DHT22;18974;50.838;4.636;2022-10-16T09:01:45;17.10;99.90
32536;DHT22;18974;50.838;4.636;2022-10-16T09:07:24;17.30;99.90
32536;DHT22;18974;50.838;4.636;2022-10-16T09:10:11;17.50;99.90
32536;DHT22;18974;50.838;4.636;2022-10-16T09:15:41;17.70;99.90
32536;DHT22;18974;50.838;4.636;2022-10-16T09:18:40;17.80;99.90
32536;DHT22;18974;50.838;4.636;2022-10-16T09:21:30;17.80;99.90
32536;DHT22;18974;50.838;4.636;2022-10-16T09:24:16;17.90;99.90
32536;DHT22;18974;50.838;4.636;2022-10-16T09:26:42;17.90;99.90
32536;DHT22;18974;50.838;4.636;2022-10-16T09:29:16;18.00;99.90
32536;DHT22;18974;50.838;4.636;2022-10-16T09:31:43;18.20;99.90
32536;DHT22;18974;50.838;4.636;2022-10-16T09:34:42;18.20;99.90
32536;DHT22;18974;50.838;4.636;2022-10-16T09:37:13;18.20;99.90
32536;DHT22;18974;50.838;4.636;2022-10-16T09:39:53;18.40;99.90
32536;DHT22;18974;50.838;4.636;2022-10-16T09:42:23;18.50;99.90
32536;DHT22;18974;50.838;4.636;2022-10-16T09:44:53;18.60;99.90
32536;DHT22;18974;50.838;4.636;2022-10-16T09:47:27;18.70;99.90
32536;DHT22;18974;50.838;4.636;2022-10-16T09:49:53;18.80;99.90
32536;DHT22;18974;50.838;4.636;2022-10-16T09:52:21;18.90;99.90
32536;DHT22;18974;50.838;4.636;2022-10-16T09:55:14;18.90;99.90
32536;DHT22;18974;50.838;4.636;2022-10-16T09:57:55;18.90;99.90
32536;DHT22;18974;50.838;4.636;2022-10-16T10:00:24;18.90;99.90
32536;DHT22;18974;50.838;4.636;2022-10-16T10:02:50;18.90;99.90
32536;DHT22;18974;50.838;4.636;2022-10-16T10:05:28;19.00;99.90
32536;DHT22;18974;50.838;4.636;2022-10-16T10:07:58;19.10;99.90
32536;DHT22;18974;50.838;4.636;2022-10-16T10:10:27;19.20;99.90
32536;DHT22;18974;50.838;4.636;2022-10-16T10:12:54;19.20;99.90
32536;DHT22;18974;50.838;4.636;2022-10-16T10:15:21;19.30;99.90
32536;DHT22;18974;50.838;4.636;2022-10-16T10:17:56;19.30;99.90
32536;DHT22;18974;50.838;4.636;2022-10-16T10:20:26;19.30;99.90
32536;DHT22;18974;50.838;4.636;2022-10-16T10:22:53;19.40;99.90
32536;DHT22;18974;50.838;4.636;2022-10-16T10:31:00;19.40;99.90
32536;DHT22;18974;50.838;4.636;2022-10-16T10:36:33;19.60;99.90
32536;DHT22;18974;50.838;4.636;2022-10-16T10:50:32;19.30;99.90
32536;DHT22;18974;50.838;4.636;2022-10-16T10:53:18;19.30;99.90
32536;DHT22;18974;50.838;4.636;2022-10-16T10:58:44;19.30;99.90
32536;DHT22;18974;50.838;4.636;2022-10-16T11:01:13;19.30;99.90
32536;DHT22;18974;50.838;4.636;2022-10-16T11:06:40;19.50;99.90
32536;DHT22;18974;50.838;4.636;2022-10-16T11:09:58;19.40;99.90
32536;DHT22;18974;50.838;4.636;2022-10-16T11:12:24;19.30;99.90
32536;DHT22;18974;50.838;4.636;2022-10-16T11:14:54;19.20;99.90
32536;DHT22;18974;50.838;4.636;2022-10-16T11:17:35;19.10;99.90
32536;DHT22;18974;50.838;4.636;2022-10-16T11:20:21;19.00;99.90
32536;DHT22;18974;50.838;4.636;2022-10-16T11:23:06;18.90;99.90
32536;DHT22;18974;50.838;4.636;2022-10-16T11:25:33;18.80;99.90
32536;DHT22;18974;50.838;4.636;2022-10-16T11:28:15;18.60;99.90
32536;DHT22;18974;50.838;4.636;2022-10-16T11:30:52;18.70;99.90
32536;DHT22;18974;50.838;4.636;2022-10-16T11:33:26;18.70;99.90
32536;DHT22;18974;50.838;4.636;2022-10-16T11:36:15;18.80;99.90
32536;DHT22;18974;50.838;4.636;2022-10-16T11:38:58;18.80;99.90
32536;DHT22;18974;50.838;4.636;2022-10-16T11:49:31;19.00;99.90
32536;DHT22;18974;50.838;4.636;2022-10-16T11:55:01;19.00;99.90
32536;DHT22;18974;50.838;4.636;2022-10-16T11:57:38;19.00;99.90
32536;DHT22;18974;50.838;4.636;2022-10-16T12:00:23;19.10;99.90
32536;DHT22;18974;50.838;4.636;2022-10-16T12:05:36;19.20;99.90
32536;DHT22;18974;50.838;4.636;2022-10-16T12:08:14;19.30;99.90
32536;DHT22;18974;50.838;4.636;2022-10-16T12:10:44;19.50;99.90
32536;DHT22;18974;50.838;4.636;2022-10-16T12:13:33;19.50;99.90
32536;DHT22;18974;50.838;4.636;2022-10-16T12:18:38;20.20;99.90
32536;DHT22;18974;50.838;4.636;2022-10-16T12:21:05;20.40;99.90
32536;DHT22;18974;50.838;4.636;2022-10-16T12:23:33;20.60;99.90
32536;DHT22;18974;50.838;4.636;2022-10-16T12:26:01;20.90;99.90
32536;DHT22;18974;50.838;4.636;2022-10-16T12:28:30;21.00;99.90
32536;DHT22;18974;50.838;4.636;2022-10-16T12:31:02;21.00;99.90
32536;DHT22;18974;50.838;4.636;2022-10-16T12:33:30;20.90;99.90
32536;DHT22;18974;50.838;4.636;2022-10-16T12:35:59;21.00;99.90
32536;DHT22;18974;50.838;4.636;2022-10-16T12:38:32;21.10;99.90
32536;DHT22;18974;50.838;4.636;2022-10-16T12:41:04;21.20;99.90
32536;DHT22;18974;50.838;4.636;2022-10-16T12:43:38;21.20;99.90
32536;DHT22;18974;50.838;4.636;2022-10-16T12:46:22;21.40;99.90
32536;DHT22;18974;50.838;4.636;2022-10-16T12:48:48;21.50;99.90
32536;DHT22;18974;50.838;4.636;2022-10-16T12:54:12;21.50;99.90
32536;DHT22;18974;50.838;4.636;2022-10-16T12:57:00;21.50;99.90
32536;DHT22;18974;50.838;4.636;2022-10-16T13:00:04;21.50;99.90
32536;DHT22;18974;50.838;4.636;2022-10-16T13:02:39;21.60;99.90
32536;DHT22;18974;50.838;4.636;2022-10-16T13:07:44;21.40;99.90
32536;DHT22;18974;50.838;4.636;2022-10-16T13:16:00;21.30;99.90
32536;DHT22;18974;50.838;4.636;2022-10-16T13:21:29;21.50;99.90
32536;DHT22;18974;50.838;4.636;2022-10-16T13:24:15;21.60;99.90
32536;DHT22;18974;50.838;4.636;2022-10-16T13:29:09;21.60;99.90
32536;DHT22;18974;50.838;4.636;2022-10-16T13:31:37;21.60;99.90
32536;DHT22;18974;50.838;4.636;2022-10-16T13:34:04;21.50;99.90
32536;DHT22;18974;50.838;4.636;2022-10-16T13:36:42;21.50;99.90
32536;DHT22;18974;50.838;4.636;2022-10-16T13:39:12;21.50;99.90
32536;DHT22;18974;50.838;4.636;2022-10-16T13:41:38;21.50;99.90
32536;DHT22;18974;50.838;4.636;2022-10-16T13:44:04;21.60;99.90
32536;DHT22;18974;50.838;4.636;2022-10-16T13:46:30;21.50;99.90
32536;DHT22;18974;50.838;4.636;2022-10-16T13:49:14;21.80;99.90
32536;DHT22;18974;50.838;4.636;2022-10-16T13:51:39;21.90;99.90
32536;DHT22;18974;50.838;4.636;2022-10-16T13:54:07;21.80;99.90
32536;DHT22;18974;50.838;4.636;2022-10-16T13:56:33;21.60;99.90
32536;DHT22;18974;50.838;4.636;2022-10-16T13:59:03;21.50;99.90
32536;DHT22;18974;50.838;4.636;2022-10-16T14:01:31;21.40;99.90
32536;DHT22;18974;50.838;4.636;2022-10-16T14:06:28;21.30;99.90
32536;DHT22;18974;50.838;4.636;2022-10-16T14:09:02;21.30;99.90
32536;DHT22;18974;50.838;4.636;2022-10-16T14:11:30;21.20;99.90
32536;DHT22;18974;50.838;4.636;2022-10-16T14:13:56;21.20;99.90
32536;DHT22;18974;50.838;4.636;2022-10-16T14:16:28;21.20;99.90
32536;DHT22;18974;50.838;4.636;2022-10-16T14:19:00;21.30;99.90
32536;DHT22;18974;50.838;4.636;2022-10-16T14:21:27;21.30;99.90
32536;DHT22;18974;50.838;4.636;2022-10-16T14:23:53;21.20;99.90
32536;DHT22;18974;50.838;4.636;2022-10-16T14:26:22;21.10;99.90
32536;DHT22;18974;50.838;4.636;2022-10-16T14:28:49;21.20;99.90
32536;DHT22;18974;50.838;4.636;2022-10-16T14:31:33;21.10;99.90
32536;DHT22;18974;50.838;4.636;2022-10-16T14:33:59;21.20;99.90
32536;DHT22;18974;50.838;4.636;2022-10-16T14:36:27;21.10;99.90
32536;DHT22;18974;50.838;4.636;2022-10-16T14:39:17;21.10;99.90
32536;DHT22;18974;50.838;4.636;2022-10-16T14:41:46;21.10;99.90
32536;DHT22;18974;50.838;4.636;2022-10-16T14:44:13;21.10;99.90
32536;DHT22;18974;50.838;4.636;2022-10-16T14:46:41;21.10;99.90
32536;DHT22;18974;50.838;4.636;2022-10-16T14:51:40;21.10;99.90
32536;DHT22;18974;50.838;4.636;2022-10-16T14:54:08;21.10;99.90
32536;DHT22;18974;50.838;4.636;2022-10-16T14:56:46;21.10;99.90
32536;DHT22;18974;50.838;4.636;2022-10-16T14:59:22;21.10;99.90
32536;DHT22;18974;50.838;4.636;2022-10-16T15:01:50;20.90;99.90
32536;DHT22;18974;50.838;4.636;2022-10-16T15:04:15;20.70;99.90
32536;DHT22;18974;50.838;4.636;2022-10-16T15:06:42;20.60;99.90
32536;DHT22;18974;50.838;4.636;2022-10-16T15:09:07;20.60;99.90
32536;DHT22;18974;50.838;4.636;2022-10-16T15:11:33;20.60;99.90
32536;DHT22;18974;50.838;4.636;2022-10-16T15:13:59;20.50;99.90
32536;DHT22;18974;50.838;4.636;2022-10-16T15:16:25;20.50;99.90
32536;DHT22;18974;50.838;4.636;2022-10-16T15:18:51;20.40;99.90
32536;DHT22;18974;50.838;4.636;2022-10-16T15:21:27;20.40;99.90
32536;DHT22;18974;50.838;4.636;2022-10-16T15:23:54;20.40;99.90
32536;DHT22;18974;50.838;4.636;2022-10-16T15:26:19;20.40;99.90
32536;DHT22;18974;50.838;4.636;2022-10-16T15:28:45;20.30;99.90
32536;DHT22;18974;50.838;4.636;2022-10-16T15:31:11;20.30;99.90
32536;DHT22;18974;50.838;4.636;2022-10-16T15:33:37;20.20;99.90
32536;DHT22;18974;50.838;4.636;2022-10-16T15:36:03;20.20;99.90
32536;DHT22;18974;50.838;4.636;2022-10-16T15:38:30;20.10;99.90
32536;DHT22;18974;50.838;4.636;2022-10-16T15:40:56;20.00;99.90
32536;DHT22;18974;50.838;4.636;2022-10-16T15:43:22;20.00;99.90
32536;DHT22;18974;50.838;4.636;2022-10-16T15:46:05;19.90;99.90
32536;DHT22;18974;50.838;4.636;2022-10-16T15:48:32;19.90;99.90
32536;DHT22;18974;50.838;4.636;2022-10-16T15:50:58;19.80;99.90
32536;DHT22;18974;50.838;4.636;2022-10-16T15:53:24;19.70;99.90
32536;DHT22;18974;50.838;4.636;2022-10-16T15:55:50;19.70;99.90
32536;DHT22;18974;50.838;4.636;2022-10-16T15:58:16;19.60;99.90
32536;DHT22;18974;50.838;4.636;2022-10-16T16:00:41;19.50;99.90
32536;DHT22;18974;50.838;4.636;2022-10-16T16:03:07;19.40;99.90
32536;DHT22;18974;50.838;4.636;2022-10-16T16:05:32;19.30;99.90
32536;DHT22;18974;50.838;4.636;2022-10-16T16:07:58;19.30;99.90
32536;DHT22;18974;50.838;4.636;2022-10-16T16:10:25;19.20;99.90
32536;DHT22;18974;50.838;4.636;2022-10-16T16:12:50;19.20;99.90
32536;DHT22;18974;50.838;4.636;2022-10-16T16:15:19;19.10;99.90
32536;DHT22;18974;50.838;4.636;2022-10-16T16:17:45;19.10;99.90
32536;DHT22;18974;50.838;4.636;2022-10-16T16:20:11;19.10;99.90
32536;DHT22;18974;50.838;4.636;2022-10-16T16:22:37;19.00;99.90
32536;DHT22;18974;50.838;4.636;2022-10-16T16:25:03;18.90;99.90
32536;DHT22;18974;50.838;4.636;2022-10-16T16:27:29;18.90;99.90
32536;DHT22;18974;50.838;4.636;2022-10-16T16:29:58;18.80;99.90
32536;DHT22;18974;50.838;4.636;2022-10-16T16:32:23;18.80;99.90
32536;DHT22;18974;50.838;4.636;2022-10-16T16:34:50;18.70;99.90
32536;DHT22;18974;50.838;4.636;2022-10-16T16:37:15;18.70;99.90
32536;DHT22;18974;50.838;4.636;2022-10-16T16:39:41;18.70;99.90
32536;DHT22;18974;50.838;4.636;2022-10-16T16:42:07;18.60;99.90
32536;DHT22;18974;50.838;4.636;2022-10-16T16:44:33;18.50;99.90
32536;DHT22;18974;50.838;4.636;2022-10-16T16:47:01;18.40;99.90
32536;DHT22;18974;50.838;4.636;2022-10-16T16:49:27;18.40;99.90
32536;DHT22;18974;50.838;4.636;2022-10-16T16:51:53;18.40;99.90
32536;DHT22;18974;50.838;4.636;2022-10-16T16:54:19;18.40;99.90
32536;DHT22;18974;50.838;4.636;2022-10-16T16:56:45;18.30;99.90
32536;DHT22;18974;50.838;4.636;2022-10-16T16:59:18;18.30;99.90
32536;DHT22;18974;50.838;4.636;2022-10-16T17:01:45;18.30;99.90
32536;DHT22;18974;50.838;4.636;2022-10-16T17:04:11;18.30;99.90
32536;DHT22;18974;50.838;4.636;2022-10-16T17:06:37;18.30;99.90
32536;DHT22;18974;50.838;4.636;2022-10-16T17:09:05;18.20;99.90
32536;DHT22;18974;50.838;4.636;2022-10-16T17:11:31;18.00;99.90
32536;DHT22;18974;50.838;4.636;2022-10-16T17:13:58;17.80;99.90